sensor_id;sensor_type;location;lat;lon;timestamp;pressure;altitude;pressure_sealevel;temperature
67599;BMP280;62026;39.230;9.122;2023-08-20T00:01:50;101030.25;;;28.51
67599;BMP280;62026;39.230;9.122;2023-08-20T00:04:22;101022.44;;;28.49
67599;BMP280;62026;39.230;9.122;2023-08-20T00:06:49;101014.59;;;28.48
67599;BMP280;62026;39.230;9.122;2023-08-20T00:09:15;101017.00;;;28.49
67599;BMP280;62026;39.230;9.122;2023-08-20T00:11:41;101008.38;;;28.47
67599;BMP280;62026;39.230;9.122;2023-08-20T00:14:07;101003.28;;;28.46
67599;BMP280;62026;39.230;9.122;2023-08-20T00:16:34;101004.88;;;28.47
67599;BMP280;62026;39.230;9.122;2023-08-20T00:19:00;101007.59;;;28.47
67599;BMP280;62026;39.230;9.122;2023-08-20T00:21:27;101005.66;;;28.47
67599;BMP280;62026;39.230;9.122;2023-08-20T00:23:54;101013.03;;;28.47
67599;BMP280;62026;39.230;9.122;2023-08-20T00:26:20;101008.38;;;28.47
67599;BMP280;62026;39.230;9.122;2023-08-20T00:28:46;101020.03;;;28.48
67599;BMP280;62026;39.230;9.122;2023-08-20T00:31:12;101012.56;;;28.45
67599;BMP280;62026;39.230;9.122;2023-08-20T00:33:38;101010.97;;;28.44
67599;BMP280;62026;39.230;9.122;2023-08-20T00:36:04;101011.28;;;28.42
67599;BMP280;62026;39.230;9.122;2023-08-20T00:38:31;101009.38;;;28.43
67599;BMP280;62026;39.230;9.122;2023-08-20T00:40:57;101006.66;;;28.43
67599;BMP280;62026;39.230;9.122;2023-08-20T00:43:23;101006.97;;;28.41
67599;BMP280;62026;39.230;9.122;2023-08-20T00:45:49;101006.19;;;28.41
67599;BMP280;62026;39.230;9.122;2023-08-20T00:48:16;101008.09;;;28.40
67599;BMP280;62026;39.230;9.122;2023-08-20T00:50:43;101008.91;;;28.41
67599;BMP280;62026;39.230;9.122;2023-08-20T00:53:12;101004.16;;;28.38
67599;BMP280;62026;39.230;9.122;2023-08-20T00:55:39;101010.34;;;28.38
67599;BMP280;62026;39.230;9.122;2023-08-20T00:58:06;100999.84;;;28.37
67599;BMP280;62026;39.230;9.122;2023-08-20T01:00:32;101004.16;;;28.38
67599;BMP280;62026;39.230;9.122;2023-08-20T01:02:58;101006.84;;;28.38
67599;BMP280;62026;39.230;9.122;2023-08-20T01:05:25;101005.25;;;28.37
67599;BMP280;62026;39.230;9.122;2023-08-20T01:08:13;100999.34;;;28.35
67599;BMP280;62026;39.230;9.122;2023-08-20T01:11:30;100994.72;;;28.35
67599;BMP280;62026;39.230;9.122;2023-08-20T01:13:59;100990.88;;;28.36
67599;BMP280;62026;39.230;9.122;2023-08-20T01:16:26;100989.16;;;28.32
67599;BMP280;62026;39.230;9.122;2023-08-20T01:18:53;101000.03;;;28.32
67599;BMP280;62026;39.230;9.122;2023-08-20T01:21:39;100987.88;;;28.29
67599;BMP280;62026;39.230;9.122;2023-08-20T01:30:31;100988.69;;;28.30
67599;BMP280;62026;39.230;9.122;2023-08-20T01:32:58;100986.75;;;28.30
67599;BMP280;62026;39.230;9.122;2023-08-20T01:35:27;100993.00;;;28.31
67599;BMP280;62026;39.230;9.122;2023-08-20T01:38:02;100982.13;;;28.31
67599;BMP280;62026;39.230;9.122;2023-08-20T01:40:30;100988.69;;;28.30
67599;BMP280;62026;39.230;9.122;2023-08-20T01:42:57;100973.53;;;28.29
67599;BMP280;62026;39.230;9.122;2023-08-20T01:45:23;100986.59;;;28.27
67599;BMP280;62026;39.230;9.122;2023-08-20T01:47:49;100984.56;;;28.24
67599;BMP280;62026;39.230;9.122;2023-08-20T01:50:15;100979.00;;;28.20
67599;BMP280;62026;39.230;9.122;2023-08-20T01:52:41;100982.50;;;28.21
67599;BMP280;62026;39.230;9.122;2023-08-20T01:55:08;100980.91;;;28.20
67599;BMP280;62026;39.230;9.122;2023-08-20T01:57:34;100985.84;;;28.18
67599;BMP280;62026;39.230;9.122;2023-08-20T02:00:00;100990.50;;;28.17
67599;BMP280;62026;39.230;9.122;2023-08-20T02:02:26;100986.22;;;28.16
67599;BMP280;62026;39.230;9.122;2023-08-20T02:04:52;100981.09;;;28.15
67599;BMP280;62026;39.230;9.122;2023-08-20T02:07:18;100989.88;;;28.12
67599;BMP280;62026;39.230;9.122;2023-08-20T02:09:45;100985.25;;;28.12
67599;BMP280;62026;39.230;9.122;2023-08-20T02:12:12;100989.88;;;28.12
67599;BMP280;62026;39.230;9.122;2023-08-20T02:14:38;100988.31;;;28.11
67599;BMP280;62026;39.230;9.122;2023-08-20T02:17:04;100996.78;;;28.09
67599;BMP280;62026;39.230;9.122;2023-08-20T02:19:31;100988.50;;;28.05
67599;BMP280;62026;39.230;9.122;2023-08-20T02:21:56;100991.22;;;28.05
67599;BMP280;62026;39.230;9.122;2023-08-20T02:24:23;100984.97;;;28.05
67599;BMP280;62026;39.230;9.122;2023-08-20T02:26:49;100985.63;;;28.02
67599;BMP280;62026;39.230;9.122;2023-08-20T02:29:15;100989.47;;;28.01
67599;BMP280;62026;39.230;9.122;2023-08-20T02:31:41;100987.53;;;28.01
67599;BMP280;62026;39.230;9.122;2023-08-20T02:34:08;100984.06;;;28.01
67599;BMP280;62026;39.230;9.122;2023-08-20T02:36:34;100979.28;;;27.98
67599;BMP280;62026;39.230;9.122;2023-08-20T02:39:01;100982.28;;;27.96
67599;BMP280;62026;39.230;9.122;2023-08-20T02:41:27;100982.63;;;27.95
67599;BMP280;62026;39.230;9.122;2023-08-20T02:43:53;100983.91;;;27.97
67599;BMP280;62026;39.230;9.122;2023-08-20T02:46:19;100986.91;;;27.96
67599;BMP280;62026;39.230;9.122;2023-08-20T02:48:45;100985.66;;;27.93
67599;BMP280;62026;39.230;9.122;2023-08-20T02:51:12;100984.56;;;27.94
67599;BMP280;62026;39.230;9.122;2023-08-20T02:53:38;100991.09;;;27.93
67599;BMP280;62026;39.230;9.122;2023-08-20T02:56:04;100990.66;;;27.91
67599;BMP280;62026;39.230;9.122;2023-08-20T02:58:30;100992.22;;;27.92
67599;BMP280;62026;39.230;9.122;2023-08-20T03:00:56;100989.03;;;27.90
67599;BMP280;62026;39.230;9.122;2023-08-20T03:03:23;100989.03;;;27.90
67599;BMP280;62026;39.230;9.122;2023-08-20T03:05:50;101001.00;;;27.89
67599;BMP280;62026;39.230;9.122;2023-08-20T03:08:16;100992.75;;;27.86
67599;BMP280;62026;39.230;9.122;2023-08-20T03:10:42;100990.13;;;27.89
67599;BMP280;62026;39.230;9.122;2023-08-20T03:13:08;100993.69;;;27.90
67599;BMP280;62026;39.230;9.122;2023-08-20T03:15:34;100985.72;;;27.85
67599;BMP280;62026;39.230;9.122;2023-08-20T03:18:00;100986.50;;;27.85
67599;BMP280;62026;39.230;9.122;2023-08-20T03:20:26;100995.09;;;27.87
67599;BMP280;62026;39.230;9.122;2023-08-20T03:22:54;100995.91;;;27.88
67599;BMP280;62026;39.230;9.122;2023-08-20T03:25:20;100997.38;;;27.85
67599;BMP280;62026;39.230;9.122;2023-08-20T03:27:46;101001.19;;;27.84
67599;BMP280;62026;39.230;9.122;2023-08-20T03:30:12;101004.38;;;27.86
67599;BMP280;62026;39.230;9.122;2023-08-20T03:32:39;100993.84;;;27.85
67599;BMP280;62026;39.230;9.122;2023-08-20T03:35:05;100998.03;;;27.82
67599;BMP280;62026;39.230;9.122;2023-08-20T03:37:31;101011.75;;;27.77
67599;BMP280;62026;39.230;9.122;2023-08-20T03:39:57;101003.63;;;27.77
67599;BMP280;62026;39.230;9.122;2023-08-20T03:42:23;101008.38;;;27.80
67599;BMP280;62026;39.230;9.122;2023-08-20T03:44:49;101002.50;;;27.78
67599;BMP280;62026;39.230;9.122;2023-08-20T03:47:16;101000.72;;;27.74
67599;BMP280;62026;39.230;9.122;2023-08-20T03:49:46;101007.31;;;27.73
67599;BMP280;62026;39.230;9.122;2023-08-20T03:52:14;101000.44;;;27.66
67599;BMP280;62026;39.230;9.122;2023-08-20T03:54:40;101008.28;;;27.68
67599;BMP280;62026;39.230;9.122;2023-08-20T03:57:06;101008.28;;;27.68
67599;BMP280;62026;39.230;9.122;2023-08-20T03:59:32;101013.03;;;27.71
67599;BMP280;62026;39.230;9.122;2023-08-20T04:01:58;101008.28;;;27.68
67599;BMP280;62026;39.230;9.122;2023-08-20T04:04:26;101008.28;;;27.68
67599;BMP280;62026;39.230;9.122;2023-08-20T04:06:52;101014.34;;;27.65
67599;BMP280;62026;39.230;9.122;2023-08-20T04:09:18;101013.53;;;27.64
67599;BMP280;62026;39.230;9.122;2023-08-20T04:11:45;101007.66;;;27.62
67599;BMP280;62026;39.230;9.122;2023-08-20T04:14:10;101000.31;;;27.63
67599;BMP280;62026;39.230;9.122;2023-08-20T04:16:37;101009.25;;;27.63
67599;BMP280;62026;39.230;9.122;2023-08-20T04:19:03;101012.75;;;27.64
67599;BMP280;62026;39.230;9.122;2023-08-20T04:21:29;101007.34;;;27.64
67599;BMP280;62026;39.230;9.122;2023-08-20T04:23:55;101013.44;;;27.61
67599;BMP280;62026;39.230;9.122;2023-08-20T04:26:21;101012.63;;;27.60
67599;BMP280;62026;39.230;9.122;2023-08-20T04:28:47;101017.88;;;27.57
67599;BMP280;62026;39.230;9.122;2023-08-20T04:31:13;101022.16;;;27.58
67599;BMP280;62026;39.230;9.122;2023-08-20T04:33:49;101021.72;;;27.56
67599;BMP280;62026;39.230;9.122;2023-08-20T04:36:19;101013.56;;;27.56
67599;BMP280;62026;39.230;9.122;2023-08-20T04:38:45;101023.97;;;27.54
67599;BMP280;62026;39.230;9.122;2023-08-20T04:41:11;101022.06;;;27.54
67599;BMP280;62026;39.230;9.122;2023-08-20T04:43:37;101023.47;;;27.52
67599;BMP280;62026;39.230;9.122;2023-08-20T04:46:03;101023.47;;;27.52
67599;BMP280;62026;39.230;9.122;2023-08-20T04:48:29;101023.47;;;27.52
67599;BMP280;62026;39.230;9.122;2023-08-20T04:50:56;101024.59;;;27.51
67599;BMP280;62026;39.230;9.122;2023-08-20T04:53:22;101027.78;;;27.53
67599;BMP280;62026;39.230;9.122;2023-08-20T04:55:48;101030.00;;;27.51
67599;BMP280;62026;39.230;9.122;2023-08-20T04:58:14;101042.47;;;27.52
67599;BMP280;62026;39.230;9.122;2023-08-20T05:00:40;101039.28;;;27.50
67599;BMP280;62026;39.230;9.122;2023-08-20T05:03:10;101042.31;;;27.48
67599;BMP280;62026;39.230;9.122;2023-08-20T05:05:36;101045.81;;;27.49
67599;BMP280;62026;39.230;9.122;2023-08-20T05:08:02;101046.28;;;27.51
67599;BMP280;62026;39.230;9.122;2023-08-20T05:10:28;101050.13;;;27.50
67599;BMP280;62026;39.230;9.122;2023-08-20T05:12:54;101051.22;;;27.49
67599;BMP280;62026;39.230;9.122;2023-08-20T05:15:20;101047.41;;;27.50
67599;BMP280;62026;39.230;9.122;2023-08-20T05:17:47;101051.72;;;27.51
67599;BMP280;62026;39.230;9.122;2023-08-20T05:20:13;101063.38;;;27.51
67599;BMP280;62026;39.230;9.122;2023-08-20T05:22:41;101059.53;;;27.52
67599;BMP280;62026;39.230;9.122;2023-08-20T05:25:07;101055.88;;;27.57
67599;BMP280;62026;39.230;9.122;2023-08-20T05:27:33;101054.72;;;27.58
67599;BMP280;62026;39.230;9.122;2023-08-20T05:29:59;101056.50;;;27.62
67599;BMP280;62026;39.230;9.122;2023-08-20T05:32:25;101048.50;;;27.66
67599;BMP280;62026;39.230;9.122;2023-08-20T05:34:52;101055.66;;;27.71
67599;BMP280;62026;39.230;9.122;2023-08-20T05:37:18;101057.22;;;27.80
67599;BMP280;62026;39.230;9.122;2023-08-20T05:39:44;101056.59;;;27.83
67599;BMP280;62026;39.230;9.122;2023-08-20T05:42:11;101063.44;;;27.89
67599;BMP280;62026;39.230;9.122;2023-08-20T05:44:39;101058.97;;;27.93
67599;BMP280;62026;39.230;9.122;2023-08-20T05:47:09;101063.44;;;27.98
67599;BMP280;62026;39.230;9.122;2023-08-20T05:49:35;101060.19;;;28.04
67599;BMP280;62026;39.230;9.122;2023-08-20T05:52:02;101067.06;;;28.11
67599;BMP280;62026;39.230;9.122;2023-08-20T05:54:29;101070.03;;;28.18
67599;BMP280;62026;39.230;9.122;2023-08-20T05:56:58;101057.88;;;28.24
67599;BMP280;62026;39.230;9.122;2023-08-20T05:59:24;101069.19;;;28.34
67599;BMP280;62026;39.230;9.122;2023-08-20T06:01:53;101065.16;;;28.40
67599;BMP280;62026;39.230;9.122;2023-08-20T06:04:20;101069.91;;;28.52
67599;BMP280;62026;39.230;9.122;2023-08-20T06:06:46;101072.56;;;28.61
67599;BMP280;62026;39.230;9.122;2023-08-20T06:09:12;101071.75;;;28.60
67599;BMP280;62026;39.230;9.122;2023-08-20T06:11:39;101072.50;;;28.69
67599;BMP280;62026;39.230;9.122;2023-08-20T06:14:04;101074.69;;;28.76
67599;BMP280;62026;39.230;9.122;2023-08-20T06:16:31;101079.28;;;28.84
67599;BMP280;62026;39.230;9.122;2023-08-20T06:18:58;101082.13;;;28.87
67599;BMP280;62026;39.230;9.122;2023-08-20T06:21:24;101089.25;;;29.01
67599;BMP280;62026;39.230;9.122;2023-08-20T06:23:50;101085.84;;;29.04
67599;BMP280;62026;39.230;9.122;2023-08-20T06:26:16;101086.25;;;29.14
67599;BMP280;62026;39.230;9.122;2023-08-20T06:28:42;101095.66;;;29.17
67599;BMP280;62026;39.230;9.122;2023-08-20T06:31:08;101094.31;;;29.23
67599;BMP280;62026;39.230;9.122;2023-08-20T06:33:33;101099.09;;;29.26
67599;BMP280;62026;39.230;9.122;2023-08-20T06:36:00;101105.94;;;29.32
67599;BMP280;62026;39.230;9.122;2023-08-20T06:38:26;101108.00;;;29.35
67599;BMP280;62026;39.230;9.122;2023-08-20T06:40:51;101108.28;;;29.42
67599;BMP280;62026;39.230;9.122;2023-08-20T06:43:19;101103.72;;;29.46
67599;BMP280;62026;39.230;9.122;2023-08-20T06:45:45;101104.91;;;29.57
67599;BMP280;62026;39.230;9.122;2023-08-20T06:48:10;101107.16;;;29.55
67599;BMP280;62026;39.230;9.122;2023-08-20T06:50:36;101104.91;;;29.57
67599;BMP280;62026;39.230;9.122;2023-08-20T06:53:03;101108.44;;;29.70
67599;BMP280;62026;39.230;9.122;2023-08-20T06:55:29;101106.97;;;29.72
67599;BMP280;62026;39.230;9.122;2023-08-20T06:57:55;101100.66;;;29.80
67599;BMP280;62026;39.230;9.122;2023-08-20T07:00:21;101098.19;;;29.88
67599;BMP280;62026;39.230;9.122;2023-08-20T07:02:47;101095.34;;;29.96
67599;BMP280;62026;39.230;9.122;2023-08-20T07:05:13;101097.97;;;30.05
67599;BMP280;62026;39.230;9.122;2023-08-20T07:07:40;101086.38;;;30.08
67599;BMP280;62026;39.230;9.122;2023-08-20T07:10:07;101090.81;;;30.12
67599;BMP280;62026;39.230;9.122;2023-08-20T07:12:33;101093.09;;;30.22
67599;BMP280;62026;39.230;9.122;2023-08-20T07:14:59;101090.56;;;30.29
67599;BMP280;62026;39.230;9.122;2023-08-20T07:17:25;101096.13;;;30.33
67599;BMP280;62026;39.230;9.122;2023-08-20T07:19:50;101093.19;;;30.38
67599;BMP280;62026;39.230;9.122;2023-08-20T07:22:17;101101.34;;;30.38
67599;BMP280;62026;39.230;9.122;2023-08-20T07:24:42;101099.06;;;30.52
67599;BMP280;62026;39.230;9.122;2023-08-20T07:27:09;101098.94;;;30.61
67599;BMP280;62026;39.230;9.122;2023-08-20T07:29:38;101098.38;;;30.67
67599;BMP280;62026;39.230;9.122;2023-08-20T07:32:04;101096.31;;;30.77
67599;BMP280;62026;39.230;9.122;2023-08-20T07:34:30;101100.31;;;30.79
67599;BMP280;62026;39.230;9.122;2023-08-20T07:36:57;101097.16;;;30.93
67599;BMP280;62026;39.230;9.122;2023-08-20T07:39:23;101102.97;;;31.19
67599;BMP280;62026;39.230;9.122;2023-08-20T07:41:48;101095.84;;;31.14
67599;BMP280;62026;39.230;9.122;2023-08-20T07:44:14;101103.88;;;31.23
67599;BMP280;62026;39.230;9.122;2023-08-20T07:46:41;101106.53;;;31.35
67599;BMP280;62026;39.230;9.122;2023-08-20T07:49:07;101104.44;;;31.44
67599;BMP280;62026;39.230;9.122;2023-08-20T07:51:33;101110.28;;;31.58
67599;BMP280;62026;39.230;9.122;2023-08-20T07:53:59;101103.88;;;31.67
67599;BMP280;62026;39.230;9.122;2023-08-20T07:56:26;101105.19;;;31.73
67599;BMP280;62026;39.230;9.122;2023-08-20T07:58:52;101104.66;;;31.83
67599;BMP280;62026;39.230;9.122;2023-08-20T08:01:18;101103.88;;;31.82
67599;BMP280;62026;39.230;9.122;2023-08-20T08:03:44;101110.47;;;31.97
67599;BMP280;62026;39.230;9.122;2023-08-20T08:06:10;101106.31;;;32.19
67599;BMP280;62026;39.230;9.122;2023-08-20T08:08:41;101106.28;;;32.34
67599;BMP280;62026;39.230;9.122;2023-08-20T08:11:10;101109.25;;;32.45
67599;BMP280;62026;39.230;9.122;2023-08-20T08:13:36;101108.91;;;32.66
67599;BMP280;62026;39.230;9.122;2023-08-20T08:16:02;101110.06;;;32.65
67599;BMP280;62026;39.230;9.122;2023-08-20T08:18:28;101110.94;;;32.88
67599;BMP280;62026;39.230;9.122;2023-08-20T08:20:54;101102.47;;;32.93
67599;BMP280;62026;39.230;9.122;2023-08-20T08:23:20;101106.03;;;32.97
67599;BMP280;62026;39.230;9.122;2023-08-20T08:25:46;101112.97;;;33.33
67599;BMP280;62026;39.230;9.122;2023-08-20T08:28:12;101113.38;;;33.31
67599;BMP280;62026;39.230;9.122;2023-08-20T08:30:38;101110.47;;;33.24
67599;BMP280;62026;39.230;9.122;2023-08-20T08:33:05;101109.44;;;33.32
67599;BMP280;62026;39.230;9.122;2023-08-20T08:35:31;101116.03;;;33.50
67599;BMP280;62026;39.230;9.122;2023-08-20T08:37:57;101116.00;;;33.47
67599;BMP280;62026;39.230;9.122;2023-08-20T08:40:28;101109.50;;;33.81
67599;BMP280;62026;39.230;9.122;2023-08-20T08:42:54;101107.59;;;34.08
67599;BMP280;62026;39.230;9.122;2023-08-20T08:45:21;101112.84;;;34.20
67599;BMP280;62026;39.230;9.122;2023-08-20T08:47:48;101103.00;;;34.19
67599;BMP280;62026;39.230;9.122;2023-08-20T08:50:15;101112.47;;;34.22
67599;BMP280;62026;39.230;9.122;2023-08-20T08:52:42;101113.63;;;34.21
67599;BMP280;62026;39.230;9.122;2023-08-20T08:55:08;101109.22;;;34.42
67599;BMP280;62026;39.230;9.122;2023-08-20T08:57:37;101108.06;;;34.43
67599;BMP280;62026;39.230;9.122;2023-08-20T09:00:05;101106.06;;;34.70
67599;BMP280;62026;39.230;9.122;2023-08-20T09:02:31;101100.19;;;35.09
67599;BMP280;62026;39.230;9.122;2023-08-20T09:04:58;101095.25;;;35.25
67599;BMP280;62026;39.230;9.122;2023-08-20T09:07:24;101098.53;;;35.00
67599;BMP280;62026;39.230;9.122;2023-08-20T09:09:50;101094.72;;;35.12
67599;BMP280;62026;39.230;9.122;2023-08-20T09:12:18;101106.00;;;35.04
67599;BMP280;62026;39.230;9.122;2023-08-20T09:14:52;101095.88;;;35.11
67599;BMP280;62026;39.230;9.122;2023-08-20T09:17:18;101091.72;;;35.24
67599;BMP280;62026;39.230;9.122;2023-08-20T09:19:47;101097.13;;;35.17
67599;BMP280;62026;39.230;9.122;2023-08-20T09:22:15;101099.91;;;34.84
67599;BMP280;62026;39.230;9.122;2023-08-20T09:24:45;101089.22;;;35.12
67599;BMP280;62026;39.230;9.122;2023-08-20T09:27:14;101093.06;;;35.04
67599;BMP280;62026;39.230;9.122;2023-08-20T09:29:51;101098.56;;;35.04
67599;BMP280;62026;39.230;9.122;2023-08-20T09:32:25;101087.84;;;34.59
67599;BMP280;62026;39.230;9.122;2023-08-20T09:34:54;101088.81;;;34.40
67599;BMP280;62026;39.230;9.122;2023-08-20T09:37:23;101087.84;;;34.59
67599;BMP280;62026;39.230;9.122;2023-08-20T09:39:50;101084.09;;;34.74
67599;BMP280;62026;39.230;9.122;2023-08-20T09:42:17;101073.56;;;35.16
67599;BMP280;62026;39.230;9.122;2023-08-20T09:44:45;101077.88;;;34.77
67599;BMP280;62026;39.230;9.122;2023-08-20T09:47:16;101081.88;;;35.23
67599;BMP280;62026;39.230;9.122;2023-08-20T09:49:45;101071.84;;;35.01
67599;BMP280;62026;39.230;9.122;2023-08-20T09:52:31;101071.84;;;35.01
67599;BMP280;62026;39.230;9.122;2023-08-20T09:57:39;101069.28;;;34.78
67599;BMP280;62026;39.230;9.122;2023-08-20T10:00:08;101070.28;;;35.00
67599;BMP280;62026;39.230;9.122;2023-08-20T10:02:42;101061.03;;;35.19
67599;BMP280;62026;39.230;9.122;2023-08-20T10:05:10;101075.53;;;34.79
67599;BMP280;62026;39.230;9.122;2023-08-20T10:07:38;101065.59;;;35.04
67599;BMP280;62026;39.230;9.122;2023-08-20T10:10:07;101076.72;;;34.44
67599;BMP280;62026;39.230;9.122;2023-08-20T10:12:35;101078.19;;;33.82
67599;BMP280;62026;39.230;9.122;2023-08-20T10:15:03;101079.16;;;33.93
67599;BMP280;62026;39.230;9.122;2023-08-20T10:17:30;101073.81;;;34.04
67599;BMP280;62026;39.230;9.122;2023-08-20T10:19:59;101066.41;;;33.56
67599;BMP280;62026;39.230;9.122;2023-08-20T10:22:44;101071.03;;;33.74
67599;BMP280;62026;39.230;9.122;2023-08-20T10:25:12;101063.50;;;33.94
67599;BMP280;62026;39.230;9.122;2023-08-20T10:27:47;101067.28;;;33.60
67599;BMP280;62026;39.230;9.122;2023-08-20T10:30:26;101065.31;;;34.42
67599;BMP280;62026;39.230;9.122;2023-08-20T10:32:56;101067.38;;;33.67
67599;BMP280;62026;39.230;9.122;2023-08-20T10:38:12;101069.06;;;33.75
67599;BMP280;62026;39.230;9.122;2023-08-20T10:40:58;101071.09;;;33.55
67599;BMP280;62026;39.230;9.122;2023-08-20T10:43:37;101068.38;;;33.55
67599;BMP280;62026;39.230;9.122;2023-08-20T10:46:20;101069.06;;;33.75
67599;BMP280;62026;39.230;9.122;2023-08-20T10:49:21;101066.59;;;33.21
67599;BMP280;62026;39.230;9.122;2023-08-20T10:51:40;101058.00;;;33.45
67599;BMP280;62026;39.230;9.122;2023-08-20T10:54:08;101055.72;;;33.70
67599;BMP280;62026;39.230;9.122;2023-08-20T10:56:44;101055.59;;;33.40
67599;BMP280;62026;39.230;9.122;2023-08-20T10:59:22;101056.31;;;33.37
67599;BMP280;62026;39.230;9.122;2023-08-20T11:01:51;101052.88;;;33.63
67599;BMP280;62026;39.230;9.122;2023-08-20T11:04:30;101055.97;;;33.91
67599;BMP280;62026;39.230;9.122;2023-08-20T11:07:01;101051.75;;;33.44
67599;BMP280;62026;39.230;9.122;2023-08-20T11:09:29;101048.78;;;33.08
67599;BMP280;62026;39.230;9.122;2023-08-20T11:11:56;101044.09;;;33.08
67599;BMP280;62026;39.230;9.122;2023-08-20T11:14:23;101052.72;;;33.10
67599;BMP280;62026;39.230;9.122;2023-08-20T11:16:49;101044.94;;;33.12
67599;BMP280;62026;39.230;9.122;2023-08-20T11:19:23;101042.94;;;33.09
67599;BMP280;62026;39.230;9.122;2023-08-20T11:21:49;101041.09;;;33.17
67599;BMP280;62026;39.230;9.122;2023-08-20T11:24:16;101039.94;;;33.40
67599;BMP280;62026;39.230;9.122;2023-08-20T11:26:44;101032.91;;;33.39
67599;BMP280;62026;39.230;9.122;2023-08-20T11:29:12;101034.19;;;33.45
67599;BMP280;62026;39.230;9.122;2023-08-20T11:31:40;101029.09;;;33.47
67599;BMP280;62026;39.230;9.122;2023-08-20T11:34:07;101029.13;;;33.02
67599;BMP280;62026;39.230;9.122;2023-08-20T11:36:34;101022.22;;;33.08
67599;BMP280;62026;39.230;9.122;2023-08-20T11:39:01;101036.44;;;33.17
67599;BMP280;62026;39.230;9.122;2023-08-20T11:41:27;101046.25;;;32.99
67599;BMP280;62026;39.230;9.122;2023-08-20T11:43:53;101039.38;;;32.67
67599;BMP280;62026;39.230;9.122;2023-08-20T11:46:22;101041.19;;;32.78
67599;BMP280;62026;39.230;9.122;2023-08-20T11:49:09;101041.50;;;32.96
67599;BMP280;62026;39.230;9.122;2023-08-20T11:51:47;101041.47;;;32.92
67599;BMP280;62026;39.230;9.122;2023-08-20T11:54:15;101046.06;;;32.50
67599;BMP280;62026;39.230;9.122;2023-08-20T11:56:50;101035.53;;;32.33
67599;BMP280;62026;39.230;9.122;2023-08-20T11:59:19;101033.63;;;32.52
67599;BMP280;62026;39.230;9.122;2023-08-20T12:01:52;101037.59;;;32.55
67599;BMP280;62026;39.230;9.122;2023-08-20T12:04:25;101038.81;;;32.23
67599;BMP280;62026;39.230;9.122;2023-08-20T12:09:29;101039.50;;;32.35
67599;BMP280;62026;39.230;9.122;2023-08-20T12:11:55;101029.75;;;32.53
67599;BMP280;62026;39.230;9.122;2023-08-20T12:14:22;101021.06;;;32.13
67599;BMP280;62026;39.230;9.122;2023-08-20T12:16:48;101022.31;;;31.84
67599;BMP280;62026;39.230;9.122;2023-08-20T12:19:16;101037.53;;;31.50
67599;BMP280;62026;39.230;9.122;2023-08-20T12:21:43;101027.47;;;31.54
67599;BMP280;62026;39.230;9.122;2023-08-20T12:24:12;101028.34;;;31.27
67599;BMP280;62026;39.230;9.122;2023-08-20T12:26:39;101028.28;;;30.96
67599;BMP280;62026;39.230;9.122;2023-08-20T12:29:06;101028.78;;;31.29
67599;BMP280;62026;39.230;9.122;2023-08-20T12:31:34;101018.00;;;31.48
67599;BMP280;62026;39.230;9.122;2023-08-20T12:34:00;101027.75;;;31.34
67599;BMP280;62026;39.230;9.122;2023-08-20T12:36:27;101025.81;;;31.34
67599;BMP280;62026;39.230;9.122;2023-08-20T12:38:54;101024.94;;;31.46
67599;BMP280;62026;39.230;9.122;2023-08-20T12:41:20;101027.03;;;31.52
67599;BMP280;62026;39.230;9.122;2023-08-20T12:43:46;101029.63;;;31.02
67599;BMP280;62026;39.230;9.122;2023-08-20T12:46:12;101030.47;;;31.18
67599;BMP280;62026;39.230;9.122;2023-08-20T12:48:40;101027.19;;;31.12
67599;BMP280;62026;39.230;9.122;2023-08-20T12:51:06;101018.19;;;30.96
67599;BMP280;62026;39.230;9.122;2023-08-20T12:53:32;101030.06;;;31.04
67599;BMP280;62026;39.230;9.122;2023-08-20T12:55:58;101031.16;;;31.31
67599;BMP280;62026;39.230;9.122;2023-08-20T12:58:24;101027.25;;;31.16
67599;BMP280;62026;39.230;9.122;2023-08-20T13:00:51;101025.34;;;31.32
67599;BMP280;62026;39.230;9.122;2023-08-20T13:03:18;101018.47;;;31.23
67599;BMP280;62026;39.230;9.122;2023-08-20T13:05:44;101023.03;;;31.03
67599;BMP280;62026;39.230;9.122;2023-08-20T13:08:11;101014.53;;;30.92
67599;BMP280;62026;39.230;9.122;2023-08-20T13:10:41;101018.13;;;30.68
67599;BMP280;62026;39.230;9.122;2023-08-20T13:13:10;101023.19;;;30.54
67599;BMP280;62026;39.230;9.122;2023-08-20T13:15:38;101008.72;;;30.94
67599;BMP280;62026;39.230;9.122;2023-08-20T13:18:05;101005.50;;;31.04
67599;BMP280;62026;39.230;9.122;2023-08-20T13:20:33;101014.53;;;30.92
67599;BMP280;62026;39.230;9.122;2023-08-20T13:22:59;101014.59;;;30.80
67599;BMP280;62026;39.230;9.122;2023-08-20T13:25:25;101020.84;;;30.81
67599;BMP280;62026;39.230;9.122;2023-08-20T13:27:51;101023.59;;;30.68
67599;BMP280;62026;39.230;9.122;2023-08-20T13:30:17;101015.34;;;30.65
67599;BMP280;62026;39.230;9.122;2023-08-20T13:32:43;101012.19;;;30.51
67599;BMP280;62026;39.230;9.122;2023-08-20T13:35:09;101016.84;;;30.50
67599;BMP280;62026;39.230;9.122;2023-08-20T13:37:35;101017.31;;;30.40
67599;BMP280;62026;39.230;9.122;2023-08-20T13:40:02;101019.81;;;30.45
67599;BMP280;62026;39.230;9.122;2023-08-20T13:42:29;101010.84;;;30.57
67599;BMP280;62026;39.230;9.122;2023-08-20T13:44:55;101015.13;;;30.58
67599;BMP280;62026;39.230;9.122;2023-08-20T13:47:21;101017.84;;;30.58
67599;BMP280;62026;39.230;9.122;2023-08-20T13:49:47;101015.34;;;30.65
67599;BMP280;62026;39.230;9.122;2023-08-20T13:52:13;101021.50;;;30.78
67599;BMP280;62026;39.230;9.122;2023-08-20T13:54:39;101009.53;;;30.66
67599;BMP280;62026;39.230;9.122;2023-08-20T13:57:05;101017.22;;;30.37
67599;BMP280;62026;39.230;9.122;2023-08-20T13:59:31;101020.72;;;30.49
67599;BMP280;62026;39.230;9.122;2023-08-20T14:01:58;101013.88;;;30.55
67599;BMP280;62026;39.230;9.122;2023-08-20T14:04:25;101024.19;;;30.62
67599;BMP280;62026;39.230;9.122;2023-08-20T14:06:51;101020.88;;;30.68
67599;BMP280;62026;39.230;9.122;2023-08-20T14:09:17;101018.53;;;30.83
67599;BMP280;62026;39.230;9.122;2023-08-20T14:11:45;101022.91;;;30.71
67599;BMP280;62026;39.230;9.122;2023-08-20T14:14:11;101020.13;;;30.84